sensor_id;sensor_type;location;lat;lon;timestamp;P1;durP1;ratioP1;P2;durP2;ratioP2
14256;SDS011;7212;53.254;6.456;2022-09-14T00:00:27;2.03;;;1.58;;
14256;SDS011;7212;53.254;6.456;2022-09-14T00:02:53;1.88;;;1.55;;
14256;SDS011;7212;53.254;6.456;2022-09-14T00:05:19;1.70;;;1.60;;
14256;SDS011;7212;53.254;6.456;2022-09-14T00:07:44;1.40;;;1.30;;
14256;SDS011;7212;53.254;6.456;2022-09-14T00:10:10;1.40;;;1.30;;
14256;SDS011;7212;53.254;6.456;2022-09-14T00:12:36;1.50;;;1.40;;
14256;SDS011;7212;53.254;6.456;2022-09-14T00:15:01;1.35;;;1.23;;
14256;SDS011;7212;53.254;6.456;2022-09-14T00:17:28;2.08;;;1.40;;
14256;SDS011;7212;53.254;6.456;2022-09-14T00:19:53;1.70;;;1.48;;
14256;SDS011;7212;53.254;6.456;2022-09-14T00:22:19;1.65;;;1.20;;
14256;SDS011;7212;53.254;6.456;2022-09-14T00:24:44;1.80;;;1.50;;
14256;SDS011;7212;53.254;6.456;2022-09-14T00:27:10;1.40;;;1.30;;
14256;SDS011;7212;53.254;6.456;2022-09-14T00:29:36;1.95;;;1.33;;
14256;SDS011;7212;53.254;6.456;2022-09-14T00:32:01;1.40;;;1.30;;
14256;SDS011;7212;53.254;6.456;2022-09-14T00:34:27;2.35;;;1.60;;
14256;SDS011;7212;53.254;6.456;2022-09-14T00:36:53;2.08;;;1.17;;
14256;SDS011;7212;53.254;6.456;2022-09-14T00:39:20;1.80;;;1.35;;
14256;SDS011;7212;53.254;6.456;2022-09-14T00:41:50;1.58;;;1.40;;
14256;SDS011;7212;53.254;6.456;2022-09-14T00:46:43;1.67;;;1.35;;
14256;SDS011;7212;53.254;6.456;2022-09-14T00:49:14;2.25;;;1.40;;
14256;SDS011;7212;53.254;6.456;2022-09-14T00:51:55;1.85;;;1.27;;
14256;SDS011;7212;53.254;6.456;2022-09-14T00:54:35;2.83;;;1.20;;
14256;SDS011;7212;53.254;6.456;2022-09-14T00:57:05;2.38;;;1.60;;
14256;SDS011;7212;53.254;6.456;2022-09-14T00:59:32;1.27;;;1.17;;
14256;SDS011;7212;53.254;6.456;2022-09-14T01:02:00;2.13;;;1.40;;
14256;SDS011;7212;53.254;6.456;2022-09-14T01:04:26;1.83;;;1.40;;
14256;SDS011;7212;53.254;6.456;2022-09-14T01:20:29;1.88;;;1.20;;
14256;SDS011;7212;53.254;6.456;2022-09-14T01:23:12;2.05;;;1.40;;
14256;SDS011;7212;53.254;6.456;2022-09-14T01:28:40;1.63;;;1.30;;
14256;SDS011;7212;53.254;6.456;2022-09-14T01:31:18;1.10;;;1.00;;
14256;SDS011;7212;53.254;6.456;2022-09-14T01:33:55;1.35;;;1.10;;
14256;SDS011;7212;53.254;6.456;2022-09-14T01:36:29;1.98;;;1.58;;
14256;SDS011;7212;53.254;6.456;2022-09-14T01:38:58;1.33;;;1.23;;
14256;SDS011;7212;53.254;6.456;2022-09-14T01:41:25;2.72;;;1.40;;
14256;SDS011;7212;53.254;6.456;2022-09-14T01:46:46;2.35;;;1.70;;
14256;SDS011;7212;53.254;6.456;2022-09-14T01:49:33;1.98;;;1.10;;
14256;SDS011;7212;53.254;6.456;2022-09-14T01:52:04;1.65;;;1.40;;
14256;SDS011;7212;53.254;6.456;2022-09-14T01:54:41;1.80;;;1.20;;
14256;SDS011;7212;53.254;6.456;2022-09-14T01:59:56;1.48;;;1.20;;
14256;SDS011;7212;53.254;6.456;2022-09-14T02:02:33;1.42;;;1.20;;
14256;SDS011;7212;53.254;6.456;2022-09-14T02:07:38;1.40;;;1.17;;
14256;SDS011;7212;53.254;6.456;2022-09-14T02:10:05;2.10;;;1.63;;
14256;SDS011;7212;53.254;6.456;2022-09-14T02:12:33;2.08;;;1.20;;
14256;SDS011;7212;53.254;6.456;2022-09-14T02:15:00;1.92;;;1.20;;
14256;SDS011;7212;53.254;6.456;2022-09-14T02:17:26;1.83;;;1.38;;
14256;SDS011;7212;53.254;6.456;2022-09-14T02:19:57;1.15;;;1.05;;
14256;SDS011;7212;53.254;6.456;2022-09-14T02:22:25;1.20;;;1.10;;
14256;SDS011;7212;53.254;6.456;2022-09-14T02:24:52;2.15;;;1.08;;
14256;SDS011;7212;53.254;6.456;2022-09-14T02:27:18;3.08;;;1.20;;
14256;SDS011;7212;53.254;6.456;2022-09-14T02:29:44;1.15;;;1.10;;
14256;SDS011;7212;53.254;6.456;2022-09-14T02:34:48;1.75;;;1.10;;
14256;SDS011;7212;53.254;6.456;2022-09-14T02:37:38;1.20;;;1.10;;
14256;SDS011;7212;53.254;6.456;2022-09-14T02:42:43;1.52;;;1.20;;
14256;SDS011;7212;53.254;6.456;2022-09-14T02:48:02;1.42;;;1.23;;
14256;SDS011;7212;53.254;6.456;2022-09-14T02:50:50;1.30;;;1.20;;
14256;SDS011;7212;53.254;6.456;2022-09-14T02:53:23;2.58;;;1.40;;
14256;SDS011;7212;53.254;6.456;2022-09-14T02:56:05;1.58;;;1.48;;
14256;SDS011;7212;53.254;6.456;2022-09-14T02:58:37;1.40;;;1.30;;
14256;SDS011;7212;53.254;6.456;2022-09-14T03:01:05;1.80;;;1.30;;
14256;SDS011;7212;53.254;6.456;2022-09-14T03:03:33;1.60;;;1.25;;
14256;SDS011;7212;53.254;6.456;2022-09-14T03:05:59;1.48;;;1.38;;
14256;SDS011;7212;53.254;6.456;2022-09-14T03:08:25;1.40;;;1.30;;
14256;SDS011;7212;53.254;6.456;2022-09-14T03:10:51;1.83;;;1.55;;
14256;SDS011;7212;53.254;6.456;2022-09-14T03:13:17;2.03;;;1.30;;
14256;SDS011;7212;53.254;6.456;2022-09-14T03:15:43;1.60;;;1.35;;
14256;SDS011;7212;53.254;6.456;2022-09-14T03:18:08;1.40;;;1.30;;
14256;SDS011;7212;53.254;6.456;2022-09-14T03:20:34;2.42;;;1.60;;
14256;SDS011;7212;53.254;6.456;2022-09-14T03:23:00;1.88;;;1.33;;
14256;SDS011;7212;53.254;6.456;2022-09-14T03:25:27;1.75;;;1.42;;
14256;SDS011;7212;53.254;6.456;2022-09-14T03:27:55;1.60;;;1.35;;
14256;SDS011;7212;53.254;6.456;2022-09-14T03:30:22;2.17;;;1.35;;
14256;SDS011;7212;53.254;6.456;2022-09-14T03:32:48;2.92;;;1.67;;
14256;SDS011;7212;53.254;6.456;2022-09-14T03:35:14;1.40;;;1.30;;
14256;SDS011;7212;53.254;6.456;2022-09-14T03:37:41;3.50;;;1.75;;
14256;SDS011;7212;53.254;6.456;2022-09-14T03:40:08;3.25;;;1.50;;
14256;SDS011;7212;53.254;6.456;2022-09-14T03:42:35;1.30;;;1.20;;
14256;SDS011;7212;53.254;6.456;2022-09-14T03:45:01;1.80;;;1.42;;
14256;SDS011;7212;53.254;6.456;2022-09-14T03:53:57;2.63;;;1.60;;
14256;SDS011;7212;53.254;6.456;2022-09-14T03:58:58;1.70;;;1.60;;
14256;SDS011;7212;53.254;6.456;2022-09-14T04:01:24;1.98;;;1.30;;
14256;SDS011;7212;53.254;6.456;2022-09-14T04:03:49;1.77;;;1.40;;
14256;SDS011;7212;53.254;6.456;2022-09-14T04:06:16;2.20;;;1.60;;
14256;SDS011;7212;53.254;6.456;2022-09-14T04:08:43;1.65;;;1.55;;
14256;SDS011;7212;53.254;6.456;2022-09-14T04:13:41;2.70;;;1.58;;
14256;SDS011;7212;53.254;6.456;2022-09-14T04:16:08;1.55;;;1.42;;
14256;SDS011;7212;53.254;6.456;2022-09-14T04:18:34;1.50;;;1.40;;
14256;SDS011;7212;53.254;6.456;2022-09-14T04:21:00;1.60;;;1.50;;
14256;SDS011;7212;53.254;6.456;2022-09-14T04:23:30;1.60;;;1.50;;
14256;SDS011;7212;53.254;6.456;2022-09-14T04:25:57;1.83;;;1.48;;
14256;SDS011;7212;53.254;6.456;2022-09-14T04:28:22;1.77;;;1.55;;
14256;SDS011;7212;53.254;6.456;2022-09-14T04:30:59;2.60;;;1.50;;
14256;SDS011;7212;53.254;6.456;2022-09-14T04:33:29;1.40;;;1.30;;
14256;SDS011;7212;53.254;6.456;2022-09-14T04:36:04;1.70;;;1.48;;
14256;SDS011;7212;53.254;6.456;2022-09-14T04:38:31;2.17;;;1.48;;
14256;SDS011;7212;53.254;6.456;2022-09-14T04:40:58;1.95;;;1.65;;
14256;SDS011;7212;53.254;6.456;2022-09-14T04:43:25;1.73;;;1.50;;
14256;SDS011;7212;53.254;6.456;2022-09-14T04:45:51;1.88;;;1.55;;
14256;SDS011;7212;53.254;6.456;2022-09-14T04:48:18;1.70;;;1.60;;
14256;SDS011;7212;53.254;6.456;2022-09-14T04:50:44;1.45;;;1.35;;
14256;SDS011;7212;53.254;6.456;2022-09-14T04:53:10;1.65;;;1.42;;
14256;SDS011;7212;53.254;6.456;2022-09-14T04:55:36;1.95;;;1.65;;
14256;SDS011;7212;53.254;6.456;2022-09-14T04:58:02;1.60;;;1.38;;
14256;SDS011;7212;53.254;6.456;2022-09-14T05:00:28;1.60;;;1.40;;
14256;SDS011;7212;53.254;6.456;2022-09-14T05:02:54;2.13;;;1.55;;
14256;SDS011;7212;53.254;6.456;2022-09-14T05:05:20;2.67;;;1.70;;
14256;SDS011;7212;53.254;6.456;2022-09-14T05:07:45;1.60;;;1.50;;
14256;SDS011;7212;53.254;6.456;2022-09-14T05:10:11;1.48;;;1.30;;
14256;SDS011;7212;53.254;6.456;2022-09-14T05:12:36;2.45;;;1.40;;
14256;SDS011;7212;53.254;6.456;2022-09-14T05:15:02;2.17;;;1.60;;
14256;SDS011;7212;53.254;6.456;2022-09-14T05:17:28;2.90;;;1.70;;
14256;SDS011;7212;53.254;6.456;2022-09-14T05:19:57;1.83;;;1.73;;
14256;SDS011;7212;53.254;6.456;2022-09-14T05:22:23;1.45;;;1.35;;
14256;SDS011;7212;53.254;6.456;2022-09-14T05:24:48;1.60;;;1.50;;
14256;SDS011;7212;53.254;6.456;2022-09-14T05:27:14;1.50;;;1.40;;
14256;SDS011;7212;53.254;6.456;2022-09-14T05:29:39;1.40;;;1.30;;
14256;SDS011;7212;53.254;6.456;2022-09-14T05:32:05;2.58;;;1.88;;
14256;SDS011;7212;53.254;6.456;2022-09-14T05:34:31;1.95;;;1.50;;
14256;SDS011;7212;53.254;6.456;2022-09-14T05:36:56;1.73;;;1.30;;
14256;SDS011;7212;53.254;6.456;2022-09-14T05:39:22;1.60;;;1.50;;
14256;SDS011;7212;53.254;6.456;2022-09-14T05:41:49;2.05;;;1.73;;
14256;SDS011;7212;53.254;6.456;2022-09-14T05:44:15;1.98;;;1.70;;
14256;SDS011;7212;53.254;6.456;2022-09-14T05:46:41;2.20;;;1.67;;
14256;SDS011;7212;53.254;6.456;2022-09-14T05:49:07;2.40;;;1.38;;
14256;SDS011;7212;53.254;6.456;2022-09-14T05:51:32;1.40;;;1.30;;
14256;SDS011;7212;53.254;6.456;2022-09-14T05:53:58;1.65;;;1.30;;
14256;SDS011;7212;53.254;6.456;2022-09-14T05:56:25;2.60;;;1.65;;
14256;SDS011;7212;53.254;6.456;2022-09-14T05:58:53;1.60;;;1.50;;
14256;SDS011;7212;53.254;6.456;2022-09-14T06:01:20;1.52;;;1.42;;
14256;SDS011;7212;53.254;6.456;2022-09-14T06:03:47;2.00;;;1.20;;
14256;SDS011;7212;53.254;6.456;2022-09-14T06:06:15;2.53;;;1.50;;
14256;SDS011;7212;53.254;6.456;2022-09-14T06:08:42;1.50;;;1.40;;
14256;SDS011;7212;53.254;6.456;2022-09-14T06:11:12;1.95;;;1.50;;
14256;SDS011;7212;53.254;6.456;2022-09-14T06:13:39;1.50;;;1.40;;
14256;SDS011;7212;53.254;6.456;2022-09-14T06:16:06;1.40;;;1.30;;
14256;SDS011;7212;53.254;6.456;2022-09-14T06:18:34;2.50;;;1.50;;
14256;SDS011;7212;53.254;6.456;2022-09-14T06:21:00;1.50;;;1.33;;
14256;SDS011;7212;53.254;6.456;2022-09-14T06:23:27;1.50;;;1.40;;
14256;SDS011;7212;53.254;6.456;2022-09-14T06:25:54;2.45;;;1.23;;
14256;SDS011;7212;53.254;6.456;2022-09-14T06:28:21;1.58;;;1.30;;
14256;SDS011;7212;53.254;6.456;2022-09-14T06:30:47;1.20;;;1.10;;
14256;SDS011;7212;53.254;6.456;2022-09-14T06:33:13;1.30;;;1.20;;
14256;SDS011;7212;53.254;6.456;2022-09-14T06:35:39;1.40;;;1.30;;
14256;SDS011;7212;53.254;6.456;2022-09-14T06:38:06;2.03;;;1.42;;
14256;SDS011;7212;53.254;6.456;2022-09-14T06:40:32;1.90;;;1.40;;
14256;SDS011;7212;53.254;6.456;2022-09-14T06:42:58;1.20;;;1.10;;
14256;SDS011;7212;53.254;6.456;2022-09-14T06:45:27;1.42;;;1.30;;
14256;SDS011;7212;53.254;6.456;2022-09-14T06:47:54;1.75;;;1.15;;
14256;SDS011;7212;53.254;6.456;2022-09-14T06:50:20;1.20;;;1.05;;
14256;SDS011;7212;53.254;6.456;2022-09-14T06:52:46;1.48;;;1.20;;
14256;SDS011;7212;53.254;6.456;2022-09-14T06:55:12;1.35;;;1.00;;
14256;SDS011;7212;53.254;6.456;2022-09-14T06:57:37;1.27;;;1.17;;
14256;SDS011;7212;53.254;6.456;2022-09-14T07:00:03;2.60;;;1.17;;
14256;SDS011;7212;53.254;6.456;2022-09-14T07:02:29;1.88;;;1.02;;
14256;SDS011;7212;53.254;6.456;2022-09-14T07:04:55;1.00;;;0.90;;
14256;SDS011;7212;53.254;6.456;2022-09-14T07:07:21;1.35;;;1.15;;
14256;SDS011;7212;53.254;6.456;2022-09-14T07:09:47;1.85;;;1.00;;
14256;SDS011;7212;53.254;6.456;2022-09-14T07:12:13;2.15;;;1.35;;
14256;SDS011;7212;53.254;6.456;2022-09-14T07:14:38;1.33;;;1.23;;
14256;SDS011;7212;53.254;6.456;2022-09-14T07:17:04;1.15;;;0.90;;
14256;SDS011;7212;53.254;6.456;2022-09-14T07:19:30;1.80;;;1.48;;
14256;SDS011;7212;53.254;6.456;2022-09-14T07:21:56;1.25;;;1.00;;
14256;SDS011;7212;53.254;6.456;2022-09-14T07:24:21;1.23;;;1.10;;
14256;SDS011;7212;53.254;6.456;2022-09-14T07:26:47;1.55;;;0.98;;
14256;SDS011;7212;53.254;6.456;2022-09-14T07:29:14;2.50;;;1.08;;
14256;SDS011;7212;53.254;6.456;2022-09-14T07:31:43;2.00;;;1.00;;
14256;SDS011;7212;53.254;6.456;2022-09-14T07:34:10;1.65;;;0.98;;
14256;SDS011;7212;53.254;6.456;2022-09-14T07:36:36;0.90;;;0.88;;
14256;SDS011;7212;53.254;6.456;2022-09-14T07:39:04;1.27;;;1.00;;
14256;SDS011;7212;53.254;6.456;2022-09-14T07:41:31;1.30;;;1.10;;
14256;SDS011;7212;53.254;6.456;2022-09-14T07:43:58;2.00;;;1.00;;
14256;SDS011;7212;53.254;6.456;2022-09-14T07:46:25;1.40;;;1.05;;
14256;SDS011;7212;53.254;6.456;2022-09-14T07:48:55;1.52;;;1.05;;
14256;SDS011;7212;53.254;6.456;2022-09-14T07:51:22;1.77;;;1.00;;
14256;SDS011;7212;53.254;6.456;2022-09-14T07:53:49;1.35;;;0.95;;
14256;SDS011;7212;53.254;6.456;2022-09-14T07:56:14;3.55;;;0.90;;
14256;SDS011;7212;53.254;6.456;2022-09-14T07:58:40;1.45;;;1.00;;
14256;SDS011;7212;53.254;6.456;2022-09-14T08:01:08;1.95;;;1.08;;
14256;SDS011;7212;53.254;6.456;2022-09-14T08:03:39;2.95;;;1.13;;
14256;SDS011;7212;53.254;6.456;2022-09-14T08:06:10;1.33;;;0.90;;
14256;SDS011;7212;53.254;6.456;2022-09-14T08:08:42;1.08;;;1.00;;
14256;SDS011;7212;53.254;6.456;2022-09-14T08:13:40;1.00;;;0.90;;
14256;SDS011;7212;53.254;6.456;2022-09-14T08:16:08;1.17;;;1.00;;
14256;SDS011;7212;53.254;6.456;2022-09-14T08:18:35;1.83;;;1.00;;
14256;SDS011;7212;53.254;6.456;2022-09-14T08:21:02;2.13;;;1.10;;
14256;SDS011;7212;53.254;6.456;2022-09-14T08:23:29;1.98;;;0.85;;
14256;SDS011;7212;53.254;6.456;2022-09-14T08:25:55;1.67;;;0.82;;
14256;SDS011;7212;53.254;6.456;2022-09-14T08:28:27;1.65;;;0.90;;
14256;SDS011;7212;53.254;6.456;2022-09-14T08:30:52;2.13;;;1.00;;
14256;SDS011;7212;53.254;6.456;2022-09-14T08:33:18;1.20;;;0.95;;
14256;SDS011;7212;53.254;6.456;2022-09-14T08:35:44;1.23;;;0.90;;
14256;SDS011;7212;53.254;6.456;2022-09-14T08:38:09;2.50;;;1.15;;
14256;SDS011;7212;53.254;6.456;2022-09-14T08:40:41;1.40;;;1.00;;
14256;SDS011;7212;53.254;6.456;2022-09-14T08:43:11;1.13;;;1.00;;
14256;SDS011;7212;53.254;6.456;2022-09-14T08:45:41;2.50;;;1.00;;
14256;SDS011;7212;53.254;6.456;2022-09-14T08:48:16;2.25;;;1.10;;
14256;SDS011;7212;53.254;6.456;2022-09-14T08:50:49;1.90;;;0.90;;
14256;SDS011;7212;53.254;6.456;2022-09-14T08:53:17;1.42;;;1.10;;
14256;SDS011;7212;53.254;6.456;2022-09-14T09:00:59;2.17;;;1.10;;
14256;SDS011;7212;53.254;6.456;2022-09-14T09:03:54;3.20;;;1.25;;
14256;SDS011;7212;53.254;6.456;2022-09-14T09:09:43;2.40;;;1.00;;
14256;SDS011;7212;53.254;6.456;2022-09-14T09:12:16;2.85;;;0.93;;
14256;SDS011;7212;53.254;6.456;2022-09-14T09:14:54;2.88;;;1.17;;
14256;SDS011;7212;53.254;6.456;2022-09-14T09:17:32;2.38;;;1.27;;
14256;SDS011;7212;53.254;6.456;2022-09-14T09:20:13;3.15;;;1.23;;
14256;SDS011;7212;53.254;6.456;2022-09-14T09:22:44;1.35;;;0.98;;
14256;SDS011;7212;53.254;6.456;2022-09-14T09:25:19;1.73;;;1.00;;
14256;SDS011;7212;53.254;6.456;2022-09-14T09:27:49;3.15;;;1.15;;
14256;SDS011;7212;53.254;6.456;2022-09-14T09:30:18;2.67;;;1.15;;
14256;SDS011;7212;53.254;6.456;2022-09-14T09:32:43;2.88;;;1.08;;
14256;SDS011;7212;53.254;6.456;2022-09-14T09:35:13;3.00;;;1.23;;
14256;SDS011;7212;53.254;6.456;2022-09-14T09:37:43;2.42;;;1.15;;
14256;SDS011;7212;53.254;6.456;2022-09-14T09:40:16;2.28;;;1.10;;
14256;SDS011;7212;53.254;6.456;2022-09-14T09:43:02;3.50;;;1.15;;
14256;SDS011;7212;53.254;6.456;2022-09-14T09:51:09;1.70;;;1.02;;
14256;SDS011;7212;53.254;6.456;2022-09-14T09:54:04;3.67;;;1.00;;
14256;SDS011;7212;53.254;6.456;2022-09-14T09:59:39;2.53;;;1.10;;
14256;SDS011;7212;53.254;6.456;2022-09-14T10:04:55;7.97;;;2.05;;
14256;SDS011;7212;53.254;6.456;2022-09-14T10:07:26;3.97;;;1.58;;
14256;SDS011;7212;53.254;6.456;2022-09-14T10:10:01;8.93;;;1.63;;
14256;SDS011;7212;53.254;6.456;2022-09-14T10:12:28;3.22;;;1.30;;
14256;SDS011;7212;53.254;6.456;2022-09-14T10:15:02;3.53;;;1.10;;
14256;SDS011;7212;53.254;6.456;2022-09-14T10:17:29;27.45;;;3.90;;
14256;SDS011;7212;53.254;6.456;2022-09-14T10:19:55;32.60;;;5.40;;
14256;SDS011;7212;53.254;6.456;2022-09-14T10:22:29;15.52;;;2.80;;
14256;SDS011;7212;53.254;6.456;2022-09-14T10:24:57;9.07;;;1.67;;
14256;SDS011;7212;53.254;6.456;2022-09-14T10:29:55;7.10;;;1.50;;
14256;SDS011;7212;53.254;6.456;2022-09-14T10:32:21;7.35;;;1.83;;
14256;SDS011;7212;53.254;6.456;2022-09-14T10:34:49;5.30;;;1.33;;
14256;SDS011;7212;53.254;6.456;2022-09-14T10:40:18;3.22;;;1.23;;
14256;SDS011;7212;53.254;6.456;2022-09-14T10:43:01;4.40;;;1.45;;
14256;SDS011;7212;53.254;6.456;2022-09-14T10:45:34;2.33;;;1.10;;
14256;SDS011;7212;53.254;6.456;2022-09-14T10:48:09;5.75;;;1.45;;
14256;SDS011;7212;53.254;6.456;2022-09-14T10:50:56;5.53;;;1.42;;
14256;SDS011;7212;53.254;6.456;2022-09-14T11:05:29;3.45;;;1.20;;
14256;SDS011;7212;53.254;6.456;2022-09-14T11:13:56;3.42;;;1.15;;
14256;SDS011;7212;53.254;6.456;2022-09-14T11:19:37;3.33;;;1.40;;
14256;SDS011;7212;53.254;6.456;2022-09-14T11:22:43;2.83;;;1.20;;
14256;SDS011;7212;53.254;6.456;2022-09-14T11:25:24;2.50;;;1.00;;
14256;SDS011;7212;53.254;6.456;2022-09-14T11:28:04;2.40;;;1.20;;
14256;SDS011;7212;53.254;6.456;2022-09-14T11:33:06;2.30;;;0.95;;
14256;SDS011;7212;53.254;6.456;2022-09-14T11:35:44;1.25;;;0.80;;
14256;SDS011;7212;53.254;6.456;2022-09-14T11:38:17;3.83;;;0.90;;
14256;SDS011;7212;53.254;6.456;2022-09-14T11:43:49;1.75;;;0.90;;
14256;SDS011;7212;53.254;6.456;2022-09-14T11:46:33;1.88;;;0.90;;
14256;SDS011;7212;53.254;6.456;2022-09-14T11:51:57;2.47;;;1.00;;
14256;SDS011;7212;53.254;6.456;2022-09-14T11:54:30;2.55;;;0.90;;
14256;SDS011;7212;53.254;6.456;2022-09-14T11:56:59;2.35;;;0.95;;
14256;SDS011;7212;53.254;6.456;2022-09-14T11:59:32;2.50;;;1.10;;
14256;SDS011;7212;53.254;6.456;2022-09-14T12:12:44;1.92;;;1.05;;
14256;SDS011;7212;53.254;6.456;2022-09-14T12:17:49;1.67;;;1.10;;
14256;SDS011;7212;53.254;6.456;2022-09-14T12:26:03;1.45;;;0.88;;
14256;SDS011;7212;53.254;6.456;2022-09-14T12:40:56;1.27;;;1.00;;
14256;SDS011;7212;53.254;6.456;2022-09-14T12:56:39;1.40;;;0.88;;
14256;SDS011;7212;53.254;6.456;2022-09-14T13:04:51;2.08;;;1.08;;
14256;SDS011;7212;53.254;6.456;2022-09-14T13:07:19;1.80;;;0.95;;
14256;SDS011;7212;53.254;6.456;2022-09-14T13:09:53;1.85;;;0.90;;
14256;SDS011;7212;53.254;6.456;2022-09-14T13:12:22;3.15;;;1.25;;
14256;SDS011;7212;53.254;6.456;2022-09-14T13:20:25;3.00;;;1.10;;
14256;SDS011;7212;53.254;6.456;2022-09-14T13:22:52;2.45;;;1.20;;
14256;SDS011;7212;53.254;6.456;2022-09-14T13:25:25;1.33;;;1.00;;
14256;SDS011;7212;53.254;6.456;2022-09-14T13:27:56;2.10;;;0.73;;
14256;SDS011;7212;53.254;6.456;2022-09-14T13:30:24;2.67;;;1.17;;
14256;SDS011;7212;53.254;6.456;2022-09-14T13:32:52;0.90;;;0.77;;
14256;SDS011;7212;53.254;6.456;2022-09-14T13:35:30;1.45;;;1.00;;
14256;SDS011;7212;53.254;6.456;2022-09-14T13:38:22;1.50;;;1.00;;
14256;SDS011;7212;53.254;6.456;2022-09-14T13:40:53;2.10;;;1.02;;
14256;SDS011;7212;53.254;6.456;2022-09-14T13:43:21;2.05;;;1.10;;
14256;SDS011;7212;53.254;6.456;2022-09-14T13:45:48;2.15;;;1.00;;
14256;SDS011;7212;53.254;6.456;2022-09-14T13:48:15;2.45;;;0.90;;
14256;SDS011;7212;53.254;6.456;2022-09-14T13:50:43;1.50;;;0.75;;
14256;SDS011;7212;53.254;6.456;2022-09-14T14:01:32;2.45;;;1.13;;
14256;SDS011;7212;53.254;6.456;2022-09-14T14:04:16;1.95;;;1.00;;
14256;SDS011;7212;53.254;6.456;2022-09-14T14:07:02;1.20;;;0.80;;
14256;SDS011;7212;53.254;6.456;2022-09-14T14:09:37;1.98;;;1.05;;
14256;SDS011;7212;53.254;6.456;2022-09-14T14:12:19;1.48;;;1.10;;
14256;SDS011;7212;53.254;6.456;2022-09-14T14:17:42;3.20;;;1.15;;
14256;SDS011;7212;53.254;6.456;2022-09-14T14:25:41;1.73;;;0.90;;
14256;SDS011;7212;53.254;6.456;2022-09-14T14:28:16;2.40;;;0.90;;
14256;SDS011;7212;53.254;6.456;2022-09-14T14:30:46;1.83;;;0.90;;
14256;SDS011;7212;53.254;6.456;2022-09-14T14:33:13;1.08;;;0.75;;
14256;SDS011;7212;53.254;6.456;2022-09-14T14:35:42;1.60;;;1.10;;
14256;SDS011;7212;53.254;6.456;2022-09-14T14:38:09;1.90;;;1.05;;
14256;SDS011;7212;53.254;6.456;2022-09-14T14:40:35;1.45;;;1.00;;
14256;SDS011;7212;53.254;6.456;2022-09-14T14:43:01;2.95;;;0.93;;
14256;SDS011;7212;53.254;6.456;2022-09-14T14:45:28;1.90;;;1.10;;
14256;SDS011;7212;53.254;6.456;2022-09-14T14:47:55;1.85;;;0.90;;
14256;SDS011;7212;53.254;6.456;2022-09-14T14:52:50;1.98;;;0.90;;
14256;SDS011;7212;53.254;6.456;2022-09-14T14:55:16;1.92;;;1.00;;
14256;SDS011;7212;53.254;6.456;2022-09-14T14:57:42;1.02;;;0.73;;
14256;SDS011;7212;53.254;6.456;2022-09-14T15:00:15;1.40;;;0.80;;
14256;SDS011;7212;53.254;6.456;2022-09-14T15:02:43;1.88;;;1.10;;
14256;SDS011;7212;53.254;6.456;2022-09-14T15:05:09;1.40;;;1.05;;
14256;SDS011;7212;53.254;6.456;2022-09-14T15:07:35;2.10;;;1.17;;
14256;SDS011;7212;53.254;6.456;2022-09-14T15:10:01;2.03;;;1.00;;
14256;SDS011;7212;53.254;6.456;2022-09-14T15:12:26;2.10;;;1.00;;
14256;SDS011;7212;53.254;6.456;2022-09-14T15:14:52;1.83;;;1.00;;
14256;SDS011;7212;53.254;6.456;2022-09-14T15:17:18;3.08;;;0.90;;
14256;SDS011;7212;53.254;6.456;2022-09-14T15:19:44;2.00;;;0.85;;
14256;SDS011;7212;53.254;6.456;2022-09-14T15:22:09;2.70;;;1.17;;
14256;SDS011;7212;53.254;6.456;2022-09-14T15:24:35;2.38;;;1.00;;
14256;SDS011;7212;53.254;6.456;2022-09-14T15:27:01;1.25;;;0.90;;
14256;SDS011;7212;53.254;6.456;2022-09-14T15:29:27;1.55;;;0.90;;
14256;SDS011;7212;53.254;6.456;2022-09-14T15:31:52;4.15;;;1.67;;
14256;SDS011;7212;53.254;6.456;2022-09-14T15:34:18;3.13;;;1.80;;
14256;SDS011;7212;53.254;6.456;2022-09-14T15:36:47;3.72;;;1.73;;
14256;SDS011;7212;53.254;6.456;2022-09-14T15:39:15;2.05;;;1.35;;
14256;SDS011;7212;53.254;6.456;2022-09-14T15:41:43;2.70;;;1.73;;
14256;SDS011;7212;53.254;6.456;2022-09-14T15:44:09;2.53;;;1.40;;
14256;SDS011;7212;53.254;6.456;2022-09-14T15:46:39;1.83;;;1.10;;
14256;SDS011;7212;53.254;6.456;2022-09-14T15:49:06;1.23;;;1.13;;
14256;SDS011;7212;53.254;6.456;2022-09-14T15:51:35;3.47;;;1.15;;
14256;SDS011;7212;53.254;6.456;2022-09-14T15:54:00;2.15;;;1.15;;
14256;SDS011;7212;53.254;6.456;2022-09-14T15:56:26;1.85;;;1.20;;
14256;SDS011;7212;53.254;6.456;2022-09-14T15:58:52;2.13;;;1.23;;
14256;SDS011;7212;53.254;6.456;2022-09-14T16:01:20;2.05;;;1.00;;
14256;SDS011;7212;53.254;6.456;2022-09-14T16:03:46;1.23;;;1.08;;
14256;SDS011;7212;53.254;6.456;2022-09-14T16:06:12;1.85;;;1.02;;
14256;SDS011;7212;53.254;6.456;2022-09-14T16:08:39;1.25;;;0.80;;
14256;SDS011;7212;53.254;6.456;2022-09-14T16:11:05;1.58;;;1.08;;
14256;SDS011;7212;53.254;6.456;2022-09-14T16:13:32;1.65;;;0.95;;
14256;SDS011;7212;53.254;6.456;2022-09-14T16:16:12;2.08;;;1.10;;
14256;SDS011;7212;53.254;6.456;2022-09-14T16:18:39;1.42;;;0.90;;
14256;SDS011;7212;53.254;6.456;2022-09-14T16:21:06;2.25;;;1.20;;
14256;SDS011;7212;53.254;6.456;2022-09-14T16:23:36;1.63;;;1.00;;
14256;SDS011;7212;53.254;6.456;2022-09-14T16:26:15;1.55;;;1.10;;
14256;SDS011;7212;53.254;6.456;2022-09-14T16:28:43;1.92;;;0.80;;
14256;SDS011;7212;53.254;6.456;2022-09-14T16:31:11;1.88;;;1.13;;
14256;SDS011;7212;53.254;6.456;2022-09-14T16:33:39;1.33;;;0.90;;
14256;SDS011;7212;53.254;6.456;2022-09-14T16:36:08;1.80;;;0.82;;
14256;SDS011;7212;53.254;6.456;2022-09-14T16:38:35;1.67;;;1.15;;
14256;SDS011;7212;53.254;6.456;2022-09-14T16:41:02;1.60;;;1.00;;
14256;SDS011;7212;53.254;6.456;2022-09-14T16:43:29;2.22;;;1.15;;
14256;SDS011;7212;53.254;6.456;2022-09-14T16:46:02;2.05;;;1.13;;
14256;SDS011;7212;53.254;6.456;2022-09-14T16:48:30;3.22;;;1.27;;
14256;SDS011;7212;53.254;6.456;2022-09-14T16:50:56;1.00;;;0.90;;
14256;SDS011;7212;53.254;6.456;2022-09-14T16:53:22;2.35;;;1.00;;
14256;SDS011;7212;53.254;6.456;2022-09-14T16:55:49;1.60;;;0.90;;
14256;SDS011;7212;53.254;6.456;2022-09-14T16:58:14;1.77;;;1.00;;
14256;SDS011;7212;53.254;6.456;2022-09-14T17:00:40;1.60;;;0.95;;
14256;SDS011;7212;53.254;6.456;2022-09-14T17:03:06;1.95;;;1.10;;
14256;SDS011;7212;53.254;6.456;2022-09-14T17:05:31;1.42;;;0.90;;
14256;SDS011;7212;53.254;6.456;2022-09-14T17:07:57;1.98;;;0.90;;
14256;SDS011;7212;53.254;6.456;2022-09-14T17:10:22;1.45;;;0.85;;
14256;SDS011;7212;53.254;6.456;2022-09-14T17:12:48;1.52;;;1.10;;
14256;SDS011;7212;53.254;6.456;2022-09-14T17:15:14;1.33;;;1.00;;
14256;SDS011;7212;53.254;6.456;2022-09-14T17:17:39;2.53;;;1.20;;
14256;SDS011;7212;53.254;6.456;2022-09-14T17:20:05;2.83;;;1.02;;
14256;SDS011;7212;53.254;6.456;2022-09-14T17:22:31;2.75;;;1.02;;
14256;SDS011;7212;53.254;6.456;2022-09-14T17:24:57;1.98;;;0.98;;
14256;SDS011;7212;53.254;6.456;2022-09-14T17:27:23;2.03;;;1.13;;
14256;SDS011;7212;53.254;6.456;2022-09-14T17:29:49;1.70;;;1.10;;
14256;SDS011;7212;53.254;6.456;2022-09-14T17:32:15;1.25;;;0.93;;
14256;SDS011;7212;53.254;6.456;2022-09-14T17:34:40;2.58;;;1.02;;
14256;SDS011;7212;53.254;6.456;2022-09-14T17:37:06;1.30;;;0.80;;
14256;SDS011;7212;53.254;6.456;2022-09-14T17:39:32;1.40;;;0.90;;
14256;SDS011;7212;53.254;6.456;2022-09-14T17:41:57;2.35;;;1.02;;
14256;SDS011;7212;53.254;6.456;2022-09-14T17:44:23;2.17;;;0.90;;
14256;SDS011;7212;53.254;6.456;2022-09-14T17:46:51;1.50;;;0.90;;
14256;SDS011;7212;53.254;6.456;2022-09-14T17:49:17;1.73;;;1.25;;
14256;SDS011;7212;53.254;6.456;2022-09-14T17:51:44;1.55;;;0.80;;
14256;SDS011;7212;53.254;6.456;2022-09-14T17:54:10;2.30;;;0.93;;
14256;SDS011;7212;53.254;6.456;2022-09-14T17:56:36;1.58;;;1.00;;
14256;SDS011;7212;53.254;6.456;2022-09-14T17:59:04;0.95;;;0.90;;
14256;SDS011;7212;53.254;6.456;2022-09-14T18:01:32;1.23;;;1.10;;
14256;SDS011;7212;53.254;6.456;2022-09-14T18:03:59;2.65;;;1.40;;
14256;SDS011;7212;53.254;6.456;2022-09-14T18:06:28;3.47;;;1.33;;
14256;SDS011;7212;53.254;6.456;2022-09-14T18:09:02;1.50;;;0.90;;